AAL1322 KDEN-KDFW
Flight info
| Callsign | AAL1322 |
|---|---|
| Flight time | N/A |
| Altitude | 35000 |
| Route | SLEEK2 SLEEK EZEEE MDANO JOVEM6 |
| Aircraft | B738/M-SDE2E3FGHIRWXY/LB1 |
Departure
| Time | 2026-05-06 00:03 |
|---|---|
| Airport | Denver International Airport (KDEN) |
Arrival
| Time | N/A |
|---|---|
| Airport | Dallas Fort Worth International Airport (KDFW) |
| Time | Latitude | Longitude | Altitude | Speed | Heading |
|---|---|---|---|---|---|
| 2026-05-05 23:30 | 39.85801 | -104.67679 | 5385 ft | 0 kts | 360° |
| 2026-05-05 23:46 | 39.85782 | -104.67679 | 5382 ft | 4 kts | 6° |
| 2026-05-05 23:47 | 39.85765 | -104.67683 | 5385 ft | 4 kts | 16° |
| 2026-05-05 23:47 | 39.85736 | -104.67704 | 5383 ft | 4 kts | 70° |
| 2026-05-05 23:47 | 39.85734 | -104.67715 | 5385 ft | 0 kts | 90° |
| 2026-05-05 23:51 | 39.85734 | -104.67709 | 5381 ft | 3 kts | 90° |
| 2026-05-05 23:51 | 39.85734 | -104.67657 | 5385 ft | 8 kts | 90° |
| 2026-05-05 23:51 | 39.85734 | -104.67587 | 5385 ft | 8 kts | 91° |
| 2026-05-05 23:52 | 39.85733 | -104.67513 | 5385 ft | 9 kts | 91° |
| 2026-05-05 23:52 | 39.85732 | -104.67420 | 5385 ft | 11 kts | 91° |
| 2026-05-05 23:52 | 39.85730 | -104.67309 | 5385 ft | 12 kts | 91° |
| 2026-05-05 23:52 | 39.85730 | -104.67201 | 5385 ft | 12 kts | 89° |
| 2026-05-05 23:53 | 39.85730 | -104.67094 | 5385 ft | 12 kts | 90° |
| 2026-05-05 23:53 | 39.85729 | -104.66990 | 5385 ft | 11 kts | 90° |
| 2026-05-05 23:53 | 39.85727 | -104.66889 | 5385 ft | 11 kts | 92° |
| 2026-05-05 23:53 | 39.85689 | -104.66811 | 5383 ft | 11 kts | 151° |
| 2026-05-05 23:54 | 39.85659 | -104.66731 | 5385 ft | 10 kts | 90° |
| 2026-05-05 23:54 | 39.85659 | -104.66638 | 5386 ft | 10 kts | 90° |
| 2026-05-05 23:54 | 39.85667 | -104.66550 | 5386 ft | 10 kts | 67° |
| 2026-05-05 23:54 | 39.85679 | -104.66465 | 5386 ft | 10 kts | 89° |
| 2026-05-05 23:55 | 39.85679 | -104.66379 | 5389 ft | 9 kts | 91° |
| 2026-05-05 23:55 | 39.85678 | -104.66296 | 5387 ft | 9 kts | 87° |
| 2026-05-05 23:55 | 39.85726 | -104.66237 | 5394 ft | 12 kts | 5° |
| 2026-05-05 23:55 | 39.85822 | -104.66235 | 5389 ft | 14 kts | 0° |
| 2026-05-05 23:56 | 39.85918 | -104.66234 | 5389 ft | 14 kts | 1° |
| 2026-05-05 23:56 | 39.86010 | -104.66232 | 5389 ft | 13 kts | 1° |
| 2026-05-05 23:56 | 39.86099 | -104.66230 | 5387 ft | 13 kts | 0° |
| 2026-05-05 23:56 | 39.86186 | -104.66230 | 5384 ft | 12 kts | 0° |
| 2026-05-05 23:57 | 39.86271 | -104.66230 | 5382 ft | 12 kts | 0° |
| 2026-05-05 23:57 | 39.86353 | -104.66229 | 5377 ft | 12 kts | 1° |
| 2026-05-05 23:57 | 39.86433 | -104.66227 | 5381 ft | 11 kts | 1° |
| 2026-05-05 23:57 | 39.86512 | -104.66226 | 5381 ft | 11 kts | 1° |
| 2026-05-05 23:58 | 39.86587 | -104.66224 | 5383 ft | 11 kts | 1° |
| 2026-05-05 23:58 | 39.86661 | -104.66224 | 5378 ft | 11 kts | 0° |
| 2026-05-05 23:58 | 39.86737 | -104.66224 | 5377 ft | 11 kts | 0° |
| 2026-05-05 23:58 | 39.86811 | -104.66223 | 5376 ft | 11 kts | 0° |
| 2026-05-05 23:59 | 39.86883 | -104.66223 | 5371 ft | 10 kts | 0° |
| 2026-05-05 23:59 | 39.86953 | -104.66223 | 5371 ft | 10 kts | 0° |
| 2026-05-05 23:59 | 39.87035 | -104.66220 | 5367 ft | 13 kts | 1° |
| 2026-05-05 23:59 | 39.87125 | -104.66218 | 5365 ft | 13 kts | 0° |
| 2026-05-06 00:00 | 39.87212 | -104.66218 | 5364 ft | 12 kts | 0° |
| 2026-05-06 00:00 | 39.87297 | -104.66217 | 5365 ft | 12 kts | 1° |
| 2026-05-06 00:00 | 39.87380 | -104.66215 | 5363 ft | 13 kts | 0° |
| 2026-05-06 00:00 | 39.87466 | -104.66214 | 5362 ft | 12 kts | 1° |
| 2026-05-06 00:01 | 39.87550 | -104.66212 | 5362 ft | 12 kts | 0° |
| 2026-05-06 00:01 | 39.87630 | -104.66211 | 5360 ft | 9 kts | 359° |
| 2026-05-06 00:01 | 39.87693 | -104.66212 | 5360 ft | 9 kts | 0° |
| 2026-05-06 00:01 | 39.87749 | -104.66191 | 5359 ft | 9 kts | 50° |
| 2026-05-06 00:02 | 39.87755 | -104.66115 | 5357 ft | 8 kts | 91° |
| 2026-05-06 00:02 | 39.87754 | -104.66039 | 5355 ft | 8 kts | 91° |
| 2026-05-06 00:02 | 39.87752 | -104.65949 | 5355 ft | 15 kts | 91° |
| 2026-05-06 00:02 | 39.87748 | -104.65628 | 5352 ft | 59 kts | 91° |
| 2026-05-06 00:03 | 39.87741 | -104.64838 | 5348 ft | 115 kts | 90° |
| 2026-05-06 00:03 | 39.87734 | -104.63569 | 5328 ft | 163 kts | 90° |
| 2026-05-06 00:03 | 39.87707 | -104.61989 | 5707 ft | 177 kts | 89° |
| 2026-05-06 00:03 | 39.87671 | -104.60408 | 6544 ft | 179 kts | 92° |
| 2026-05-06 00:04 | 39.87329 | -104.58781 | 6917 ft | 195 kts | 112° |
| 2026-05-06 00:04 | 39.86693 | -104.57113 | 7084 ft | 216 kts | 114° |
| 2026-05-06 00:04 | 39.86081 | -104.55279 | 7482 ft | 223 kts | 109° |
| 2026-05-06 00:04 | 39.85548 | -104.53388 | 7921 ft | 231 kts | 109° |
| 2026-05-06 00:05 | 39.84240 | -104.49146 | 8190 ft | 277 kts | 111° |
| 2026-05-06 00:05 | 39.83521 | -104.46869 | 9183 ft | 271 kts | 115° |
| 2026-05-06 00:05 | 39.82751 | -104.44609 | 9791 ft | 275 kts | 115° |
| 2026-05-06 00:06 | 39.81997 | -104.42333 | 10004 ft | 273 kts | 114° |
| 2026-05-06 00:06 | 39.81039 | -104.40177 | 9994 ft | 278 kts | 136° |
| 2026-05-06 00:06 | 39.79438 | -104.38780 | 10093 ft | 284 kts | 158° |
| 2026-05-06 00:06 | 39.77500 | -104.37936 | 10286 ft | 305 kts | 164° |
| 2026-05-06 00:07 | 39.75428 | -104.37189 | 10632 ft | 320 kts | 165° |
| 2026-05-06 00:07 | 39.73232 | -104.36390 | 11266 ft | 325 kts | 167° |
| 2026-05-06 00:07 | 39.71017 | -104.36078 | 11808 ft | 328 kts | 189° |
| 2026-05-06 00:07 | 39.68811 | -104.36818 | 12528 ft | 327 kts | 203° |
| 2026-05-06 00:08 | 39.66702 | -104.37919 | 13317 ft | 327 kts | 206° |
| 2026-05-06 00:08 | 39.64605 | -104.39072 | 14050 ft | 328 kts | 206° |
| 2026-05-06 00:08 | 39.62494 | -104.40227 | 14682 ft | 331 kts | 207° |
| 2026-05-06 00:08 | 39.60357 | -104.41374 | 15284 ft | 334 kts | 207° |
| 2026-05-06 00:09 | 39.58186 | -104.42521 | 15873 ft | 338 kts | 207° |
| 2026-05-06 00:09 | 39.55997 | -104.43668 | 16450 ft | 342 kts | 207° |
| 2026-05-06 00:09 | 39.53765 | -104.44788 | 17020 ft | 349 kts | 202° |
| 2026-05-06 00:09 | 39.51341 | -104.45175 | 17601 ft | 365 kts | 183° |
| 2026-05-06 00:10 | 39.48797 | -104.44679 | 18207 ft | 374 kts | 176° |
| 2026-05-06 00:10 | 39.46230 | -104.44000 | 18681 ft | 379 kts | 175° |
| 2026-05-06 00:10 | 39.43635 | -104.43323 | 19191 ft | 381 kts | 175° |
| 2026-05-06 00:10 | 39.41026 | -104.42672 | 19723 ft | 383 kts | 176° |
| 2026-05-06 00:11 | 39.38397 | -104.42034 | 20249 ft | 385 kts | 176° |
| 2026-05-06 00:11 | 39.35752 | -104.41398 | 20755 ft | 388 kts | 176° |
| 2026-05-06 00:11 | 39.33088 | -104.40758 | 21304 ft | 388 kts | 176° |
| 2026-05-06 00:11 | 39.30428 | -104.40117 | 21873 ft | 390 kts | 175° |
| 2026-05-06 00:12 | 39.27745 | -104.39473 | 22337 ft | 394 kts | 175° |
| 2026-05-06 00:12 | 39.25037 | -104.38822 | 22803 ft | 397 kts | 175° |
| 2026-05-06 00:12 | 39.22309 | -104.38166 | 23296 ft | 400 kts | 175° |
| 2026-05-06 00:12 | 39.19598 | -104.37513 | 23732 ft | 403 kts | 175° |
| 2026-05-06 00:13 | 39.16841 | -104.36851 | 24127 ft | 405 kts | 175° |
| 2026-05-06 00:13 | 39.14063 | -104.36182 | 24508 ft | 408 kts | 174° |
| 2026-05-06 00:13 | 39.11285 | -104.35391 | 24955 ft | 409 kts | 173° |
| 2026-05-06 00:13 | 39.08519 | -104.34504 | 25413 ft | 410 kts | 172° |
| 2026-05-06 00:14 | 39.05753 | -104.33587 | 25772 ft | 413 kts | 172° |
| 2026-05-06 00:14 | 39.02961 | -104.32662 | 26112 ft | 415 kts | 172° |
| 2026-05-06 00:14 | 39.00152 | -104.31740 | 26473 ft | 417 kts | 172° |
| 2026-05-06 00:14 | 38.97333 | -104.30825 | 26854 ft | 419 kts | 172° |
| 2026-05-06 00:15 | 38.94534 | -104.29924 | 27213 ft | 421 kts | 172° |
| 2026-05-06 00:15 | 38.91685 | -104.29013 | 27552 ft | 422 kts | 173° |
| 2026-05-06 00:15 | 38.88841 | -104.28105 | 28013 ft | 421 kts | 174° |
| 2026-05-06 00:15 | 38.85995 | -104.27198 | 28405 ft | 422 kts | 174° |
| 2026-05-06 00:16 | 38.83141 | -104.26292 | 28695 ft | 425 kts | 174° |
| 2026-05-06 00:16 | 38.80261 | -104.25378 | 28978 ft | 427 kts | 174° |
| 2026-05-06 00:16 | 38.77370 | -104.24461 | 29293 ft | 429 kts | 174° |
| 2026-05-06 00:16 | 38.74472 | -104.23541 | 29620 ft | 430 kts | 174° |
| 2026-05-06 00:17 | 38.71561 | -104.22618 | 29919 ft | 432 kts | 174° |
| 2026-05-06 00:17 | 38.68637 | -104.21691 | 30135 ft | 434 kts | 175° |
| 2026-05-06 00:17 | 38.65730 | -104.20772 | 30298 ft | 438 kts | 175° |
| 2026-05-06 00:17 | 38.62726 | -104.19822 | 30576 ft | 438 kts | 175° |
| 2026-05-06 00:18 | 38.59822 | -104.18899 | 30999 ft | 435 kts | 176° |
| 2026-05-06 00:18 | 38.56898 | -104.17971 | 31444 ft | 431 kts | 177° |
| 2026-05-06 00:18 | 38.54003 | -104.17057 | 31802 ft | 429 kts | 177° |
| 2026-05-06 00:18 | 38.51105 | -104.16020 | 32059 ft | 441 kts | 168° |
| 2026-05-06 00:19 | 38.48393 | -104.13956 | 32246 ft | 469 kts | 152° |
| 2026-05-06 00:19 | 38.45900 | -104.11257 | 32614 ft | 470 kts | 152° |
| 2026-05-06 00:19 | 38.43423 | -104.08516 | 32870 ft | 471 kts | 152° |
| 2026-05-06 00:19 | 38.40946 | -104.05777 | 33088 ft | 472 kts | 152° |
| 2026-05-06 00:20 | 38.38458 | -104.03047 | 33358 ft | 472 kts | 153° |
| 2026-05-06 00:20 | 38.35992 | -104.00364 | 33653 ft | 470 kts | 154° |
| 2026-05-06 00:20 | 38.33505 | -103.97676 | 33933 ft | 470 kts | 154° |
| 2026-05-06 00:20 | 38.31012 | -103.94996 | 34167 ft | 469 kts | 154° |
| 2026-05-06 00:21 | 38.28519 | -103.92323 | 34377 ft | 467 kts | 155° |
| 2026-05-06 00:21 | 38.26038 | -103.89668 | 34610 ft | 467 kts | 155° |
| 2026-05-06 00:21 | 38.23547 | -103.87004 | 34815 ft | 467 kts | 155° |
| 2026-05-06 00:21 | 38.21064 | -103.84350 | 34920 ft | 469 kts | 155° |
| 2026-05-06 00:22 | 38.18559 | -103.81678 | 34907 ft | 471 kts | 155° |
| 2026-05-06 00:22 | 38.13541 | -103.76317 | 34920 ft | 469 kts | 155° |
| 2026-05-06 00:23 | 38.08620 | -103.71063 | 34929 ft | 463 kts | 155° |
| 2026-05-06 00:23 | 38.03683 | -103.65820 | 34929 ft | 462 kts | 155° |
| 2026-05-06 00:24 | 37.98752 | -103.60596 | 34944 ft | 463 kts | 155° |
| 2026-05-06 00:24 | 37.93808 | -103.55368 | 34890 ft | 464 kts | 155° |
| 2026-05-06 00:25 | 37.88827 | -103.50107 | 34890 ft | 467 kts | 155° |
| 2026-05-06 00:25 | 37.83858 | -103.44865 | 34867 ft | 469 kts | 156° |
| 2026-05-06 00:26 | 37.78838 | -103.39576 | 34881 ft | 470 kts | 156° |
| 2026-05-06 00:26 | 37.73790 | -103.34351 | 34888 ft | 468 kts | 157° |
| 2026-05-06 00:27 | 37.68756 | -103.29076 | 34884 ft | 471 kts | 155° |
| 2026-05-06 00:27 | 37.63746 | -103.23747 | 34881 ft | 471 kts | 155° |
| 2026-05-06 00:28 | 37.58756 | -103.18503 | 34884 ft | 469 kts | 156° |
| 2026-05-06 00:28 | 37.53737 | -103.13270 | 34886 ft | 467 kts | 156° |
| 2026-05-06 00:29 | 37.48727 | -103.08058 | 34871 ft | 467 kts | 156° |
| 2026-05-06 00:29 | 37.43736 | -103.02864 | 34886 ft | 465 kts | 156° |
| 2026-05-06 00:30 | 37.38748 | -102.97685 | 34881 ft | 464 kts | 156° |
| 2026-05-06 00:30 | 37.33775 | -102.92533 | 34886 ft | 463 kts | 156° |
| 2026-05-06 00:31 | 37.28851 | -102.87441 | 34888 ft | 462 kts | 156° |
| 2026-05-06 00:31 | 37.23895 | -102.82324 | 34837 ft | 461 kts | 157° |
| 2026-05-06 00:32 | 37.18947 | -102.77222 | 34872 ft | 460 kts | 157° |
| 2026-05-06 00:32 | 37.14003 | -102.72137 | 34880 ft | 459 kts | 157° |
| 2026-05-06 00:33 | 37.09061 | -102.67064 | 34888 ft | 460 kts | 157° |
| 2026-05-06 00:33 | 37.04100 | -102.61981 | 34882 ft | 461 kts | 157° |
| 2026-05-06 00:34 | 36.99132 | -102.56894 | 34866 ft | 462 kts | 157° |
| 2026-05-06 00:34 | 36.94187 | -102.51843 | 34874 ft | 463 kts | 157° |
| 2026-05-06 00:35 | 36.89189 | -102.46745 | 34886 ft | 464 kts | 157° |
| 2026-05-06 00:35 | 36.84180 | -102.41645 | 34884 ft | 465 kts | 157° |
| 2026-05-06 00:36 | 36.79163 | -102.36543 | 34875 ft | 464 kts | 157° |
| 2026-05-06 00:36 | 36.74182 | -102.31486 | 34889 ft | 464 kts | 157° |
| 2026-05-06 00:37 | 36.69174 | -102.26413 | 34894 ft | 464 kts | 157° |
| 2026-05-06 00:37 | 36.64154 | -102.21339 | 34887 ft | 465 kts | 157° |
| 2026-05-06 00:38 | 36.59133 | -102.16269 | 34862 ft | 464 kts | 157° |
| 2026-05-06 00:38 | 36.54134 | -102.11229 | 34882 ft | 463 kts | 157° |
| 2026-05-06 00:39 | 36.49124 | -102.06189 | 34894 ft | 462 kts | 157° |
| 2026-05-06 00:39 | 36.44159 | -102.01205 | 34882 ft | 462 kts | 157° |
| 2026-05-06 00:40 | 36.39161 | -101.96193 | 34900 ft | 462 kts | 157° |
| 2026-05-06 00:40 | 36.34167 | -101.91195 | 34895 ft | 461 kts | 157° |
| 2026-05-06 00:41 | 36.29167 | -101.86201 | 34904 ft | 462 kts | 157° |
| 2026-05-06 00:41 | 36.24185 | -101.81234 | 34901 ft | 463 kts | 157° |
| 2026-05-06 00:42 | 36.19161 | -101.76231 | 34897 ft | 464 kts | 157° |
| 2026-05-06 00:42 | 36.14125 | -101.71224 | 34877 ft | 464 kts | 158° |
| 2026-05-06 00:43 | 36.09078 | -101.66214 | 34868 ft | 465 kts | 157° |
| 2026-05-06 00:43 | 36.04036 | -101.61218 | 34885 ft | 465 kts | 157° |
| 2026-05-06 00:44 | 35.98976 | -101.56214 | 34902 ft | 466 kts | 157° |
| 2026-05-06 00:44 | 35.93909 | -101.51211 | 34839 ft | 467 kts | 157° |
| 2026-05-06 00:45 | 35.88888 | -101.46256 | 34879 ft | 466 kts | 157° |
| 2026-05-06 00:45 | 35.83823 | -101.41270 | 34917 ft | 465 kts | 157° |
| 2026-05-06 00:46 | 35.78838 | -101.36116 | 34922 ft | 476 kts | 151° |
| 2026-05-06 00:46 | 35.74156 | -101.30278 | 34927 ft | 481 kts | 149° |
| 2026-05-06 00:47 | 35.69527 | -101.24321 | 34897 ft | 480 kts | 149° |
| 2026-05-06 00:47 | 35.64917 | -101.18474 | 34919 ft | 478 kts | 149° |
| 2026-05-06 00:48 | 35.60263 | -101.12659 | 34933 ft | 477 kts | 149° |
| 2026-05-06 00:48 | 35.55604 | -101.06871 | 34944 ft | 476 kts | 150° |
| 2026-05-06 00:49 | 35.50943 | -101.01093 | 34940 ft | 476 kts | 150° |
| 2026-05-06 00:49 | 35.46292 | -100.95333 | 34933 ft | 475 kts | 150° |
| 2026-05-06 00:50 | 35.41636 | -100.89574 | 34920 ft | 475 kts | 150° |
| 2026-05-06 00:50 | 35.37014 | -100.83867 | 34904 ft | 475 kts | 150° |
| 2026-05-06 00:51 | 35.32352 | -100.78120 | 34891 ft | 475 kts | 150° |
| 2026-05-06 00:51 | 35.27688 | -100.72381 | 34886 ft | 476 kts | 150° |
| 2026-05-06 00:52 | 35.23028 | -100.66653 | 34879 ft | 474 kts | 150° |
| 2026-05-06 00:52 | 35.18371 | -100.60942 | 34884 ft | 474 kts | 150° |
| 2026-05-06 00:53 | 35.13747 | -100.55283 | 34881 ft | 474 kts | 150° |
| 2026-05-06 00:53 | 35.09092 | -100.49594 | 34871 ft | 473 kts | 150° |
| 2026-05-06 00:54 | 35.04440 | -100.43916 | 34836 ft | 472 kts | 150° |
| 2026-05-06 00:54 | 34.99792 | -100.38254 | 34872 ft | 472 kts | 150° |
| 2026-05-06 00:55 | 34.95149 | -100.32610 | 34887 ft | 472 kts | 150° |
| 2026-05-06 00:55 | 34.90525 | -100.26999 | 34879 ft | 472 kts | 150° |
| 2026-05-06 00:56 | 34.85864 | -100.21352 | 34883 ft | 473 kts | 150° |
| 2026-05-06 00:56 | 34.81195 | -100.15705 | 34840 ft | 474 kts | 150° |
| 2026-05-06 00:57 | 34.76510 | -100.10046 | 34866 ft | 475 kts | 150° |
| 2026-05-06 00:57 | 34.71803 | -100.04373 | 34877 ft | 477 kts | 150° |
| 2026-05-06 00:58 | 34.67082 | -99.98692 | 34879 ft | 479 kts | 150° |
| 2026-05-06 00:58 | 34.62334 | -99.92986 | 34877 ft | 481 kts | 150° |
| 2026-05-06 00:59 | 34.57649 | -99.87353 | 34818 ft | 475 kts | 150° |
| 2026-05-06 00:59 | 34.52952 | -99.81727 | 34857 ft | 475 kts | 150° |
| 2026-05-06 01:00 | 34.48242 | -99.76103 | 34873 ft | 475 kts | 150° |
| 2026-05-06 01:00 | 34.43533 | -99.70483 | 34866 ft | 475 kts | 150° |
| 2026-05-06 01:01 | 34.38820 | -99.64866 | 34866 ft | 476 kts | 150° |
| 2026-05-06 01:01 | 34.34129 | -99.59282 | 34823 ft | 476 kts | 150° |
| 2026-05-06 01:01 | 34.31739 | -99.56541 | 34846 ft | 464 kts | 158° |
| 2026-05-06 01:02 | 34.29124 | -99.54538 | 34867 ft | 432 kts | 172° |
| 2026-05-06 01:02 | 34.26393 | -99.53265 | 34851 ft | 411 kts | 181° |
| 2026-05-06 01:02 | 34.23661 | -99.52572 | 34857 ft | 392 kts | 190° |
| 2026-05-06 01:02 | 34.21000 | -99.52397 | 34851 ft | 375 kts | 198° |
| 2026-05-06 01:03 | 34.18461 | -99.52711 | 34851 ft | 359 kts | 206° |
| 2026-05-06 01:03 | 34.16101 | -99.53470 | 34854 ft | 346 kts | 213° |
| 2026-05-06 01:03 | 34.13933 | -99.54621 | 34854 ft | 335 kts | 220° |
| 2026-05-06 01:04 | 34.10277 | -99.57842 | 34851 ft | 320 kts | 232° |
| 2026-05-06 01:04 | 34.07599 | -99.61956 | 34833 ft | 312 kts | 244° |
| 2026-05-06 01:05 | 34.05938 | -99.66751 | 34843 ft | 311 kts | 255° |
| 2026-05-06 01:05 | 34.05395 | -99.71941 | 34853 ft | 316 kts | 266° |
| 2026-05-06 01:06 | 34.06068 | -99.77254 | 34850 ft | 328 kts | 278° |
| 2026-05-06 01:06 | 34.07765 | -99.82427 | 34849 ft | 341 kts | 287° |
| 2026-05-06 01:06 | 34.09069 | -99.84875 | 34868 ft | 358 kts | 296° |
| 2026-05-06 01:07 | 34.10798 | -99.87123 | 34877 ft | 366 kts | 300° |
| 2026-05-06 01:07 | 34.14405 | -99.91498 | 34859 ft | 369 kts | 300° |
| 2026-05-06 01:08 | 34.18046 | -99.95870 | 34863 ft | 369 kts | 300° |
| 2026-05-06 01:08 | 34.21674 | -100.00249 | 34861 ft | 369 kts | 300° |
| 2026-05-06 01:09 | 34.25297 | -100.04640 | 34868 ft | 369 kts | 300° |
| 2026-05-06 01:09 | 34.28909 | -100.09028 | 34878 ft | 368 kts | 300° |
| 2026-05-06 01:10 | 34.32507 | -100.13405 | 34944 ft | 367 kts | 300° |
| 2026-05-06 01:10 | 34.36079 | -100.17758 | 34902 ft | 366 kts | 300° |
| 2026-05-06 01:11 | 34.39666 | -100.22133 | 34893 ft | 365 kts | 299° |
| 2026-05-06 01:11 | 34.43232 | -100.26488 | 34895 ft | 363 kts | 299° |
| 2026-05-06 01:12 | 34.46784 | -100.30833 | 34868 ft | 362 kts | 299° |
| 2026-05-06 01:12 | 34.50294 | -100.35134 | 34865 ft | 361 kts | 299° |
| 2026-05-06 01:13 | 34.53816 | -100.39453 | 34870 ft | 360 kts | 299° |
| 2026-05-06 01:13 | 34.57339 | -100.43781 | 34874 ft | 362 kts | 298° |
| 2026-05-06 01:13 | 34.59292 | -100.45804 | 34850 ft | 386 kts | 311° |
| 2026-05-06 01:14 | 34.64422 | -100.48578 | 34870 ft | 421 kts | 326° |
| 2026-05-06 01:14 | 34.66326 | -100.49173 | 34869 ft | 434 kts | 332° |
| 2026-05-06 01:14 | 34.69400 | -100.49614 | 34862 ft | 458 kts | 343° |
| 2026-05-06 01:15 | 34.73799 | -100.48989 | 34862 ft | 495 kts | 2° |
| 2026-05-06 01:15 | 34.77036 | -100.47447 | 34875 ft | 520 kts | 18° |
| 2026-05-06 01:15 | 34.80111 | -100.44878 | 34913 ft | 541 kts | 35° |
| 2026-05-06 01:15 | 34.82633 | -100.41482 | 34881 ft | 555 kts | 53° |
| 2026-05-06 01:16 | 34.83967 | -100.38740 | 34883 ft | 559 kts | 65° |
| 2026-05-06 01:16 | 34.85450 | -100.32797 | 34888 ft | 553 kts | 88° |
| 2026-05-06 01:16 | 34.85513 | -100.28178 | 34880 ft | 540 kts | 105° |
| 2026-05-06 01:16 | 34.84718 | -100.23798 | 34897 ft | 520 kts | 121° |
| 2026-05-06 01:17 | 34.83302 | -100.19838 | 34870 ft | 501 kts | 133° |
| 2026-05-06 01:17 | 34.81356 | -100.16457 | 34843 ft | 475 kts | 148° |
| 2026-05-06 01:17 | 34.77538 | -100.11826 | 34874 ft | 467 kts | 152° |
| 2026-05-06 01:18 | 34.72118 | -100.05374 | 34866 ft | 472 kts | 151° |
| 2026-05-06 01:18 | 34.67442 | -99.99716 | 34872 ft | 476 kts | 150° |
| 2026-05-06 01:19 | 34.62763 | -99.94009 | 34870 ft | 478 kts | 150° |
| 2026-05-06 01:19 | 34.58062 | -99.88278 | 34826 ft | 479 kts | 150° |
| 2026-05-06 01:20 | 34.53393 | -99.82601 | 34854 ft | 478 kts | 150° |
| 2026-05-06 01:20 | 34.48685 | -99.76894 | 34862 ft | 479 kts | 150° |
| 2026-05-06 01:21 | 34.43980 | -99.71199 | 34861 ft | 478 kts | 150° |
| 2026-05-06 01:21 | 34.39271 | -99.65508 | 34858 ft | 478 kts | 150° |
| 2026-05-06 01:22 | 34.34567 | -99.59831 | 34807 ft | 477 kts | 150° |
| 2026-05-06 01:22 | 34.29690 | -99.54806 | 34848 ft | 436 kts | 170° |
| 2026-05-06 01:23 | 34.26978 | -99.53437 | 34856 ft | 412 kts | 180° |
| 2026-05-06 01:23 | 34.24259 | -99.52668 | 34861 ft | 393 kts | 188° |
| 2026-05-06 01:23 | 34.21585 | -99.52386 | 34850 ft | 377 kts | 196° |
| 2026-05-06 01:23 | 34.19026 | -99.52576 | 34855 ft | 361 kts | 204° |
| 2026-05-06 01:24 | 34.16624 | -99.53212 | 34853 ft | 347 kts | 211° |
| 2026-05-06 01:24 | 34.14413 | -99.54252 | 34854 ft | 335 kts | 218° |
| 2026-05-06 01:24 | 34.10649 | -99.57295 | 34855 ft | 319 kts | 231° |
| 2026-05-06 01:25 | 34.07818 | -99.61298 | 34838 ft | 311 kts | 242° |
| 2026-05-06 01:25 | 34.06005 | -99.65943 | 34845 ft | 309 kts | 253° |
| 2026-05-06 01:26 | 34.05262 | -99.71069 | 34858 ft | 315 kts | 264° |
| 2026-05-06 01:26 | 34.05707 | -99.76398 | 34850 ft | 327 kts | 276° |
| 2026-05-06 01:27 | 34.07261 | -99.81652 | 34854 ft | 340 kts | 284° |
| 2026-05-06 01:27 | 34.08410 | -99.84146 | 34896 ft | 352 kts | 292° |
| 2026-05-06 01:27 | 34.10030 | -99.86468 | 34859 ft | 368 kts | 299° |
| 2026-05-06 01:28 | 34.13644 | -99.90879 | 34859 ft | 371 kts | 300° |
| 2026-05-06 01:28 | 34.17300 | -99.95266 | 34850 ft | 370 kts | 300° |
| 2026-05-06 01:29 | 34.20937 | -99.99649 | 34858 ft | 369 kts | 300° |
| 2026-05-06 01:29 | 34.23939 | -100.03283 | 34865 ft | 367 kts | 300° |
| 2026-05-06 01:30 | 34.28013 | -100.08381 | 34871 ft | 364 kts | 300° |
| 2026-05-06 01:30 | 34.31607 | -100.12660 | 34949 ft | 362 kts | 300° |
| 2026-05-06 01:31 | 34.35170 | -100.16957 | 34905 ft | 361 kts | 300° |
| 2026-05-06 01:31 | 34.38115 | -100.20538 | 34894 ft | 361 kts | 299° |
| 2026-05-06 01:32 | 34.41652 | -100.24855 | 34894 ft | 360 kts | 299° |
| 2026-05-06 01:32 | 34.45746 | -100.29860 | 34869 ft | 360 kts | 299° |
| 2026-05-06 01:33 | 34.48677 | -100.33450 | 34863 ft | 360 kts | 299° |
| 2026-05-06 01:33 | 34.52206 | -100.37777 | 34863 ft | 361 kts | 299° |
| 2026-05-06 01:34 | 34.55737 | -100.42109 | 34914 ft | 362 kts | 298° |
| 2026-05-06 01:34 | 34.59529 | -100.46293 | 34851 ft | 391 kts | 312° |
| 2026-05-06 01:35 | 34.62018 | -100.47822 | 34878 ft | 409 kts | 320° |
| 2026-05-06 01:35 | 34.64752 | -100.49008 | 34872 ft | 426 kts | 327° |
| 2026-05-06 01:35 | 34.67708 | -100.49772 | 34859 ft | 447 kts | 337° |
| 2026-05-06 01:35 | 34.70862 | -100.49906 | 34863 ft | 472 kts | 349° |
| 2026-05-06 01:36 | 34.74179 | -100.49208 | 34857 ft | 500 kts | 4° |
| 2026-05-06 01:36 | 34.77468 | -100.47538 | 34872 ft | 524 kts | 20° |
| 2026-05-06 01:36 | 34.80475 | -100.44901 | 34909 ft | 544 kts | 37° |
| 2026-05-06 01:36 | 34.82976 | -100.41376 | 34876 ft | 557 kts | 54° |
| 2026-05-06 01:37 | 34.84740 | -100.37174 | 34889 ft | 559 kts | 72° |
| 2026-05-06 01:37 | 34.85634 | -100.32597 | 34878 ft | 553 kts | 90° |
| 2026-05-06 01:37 | 34.85613 | -100.27984 | 34880 ft | 538 kts | 107° |
| 2026-05-06 01:37 | 34.84759 | -100.23647 | 34900 ft | 518 kts | 122° |
| 2026-05-06 01:38 | 34.83301 | -100.19726 | 34873 ft | 499 kts | 134° |
| 2026-05-06 01:38 | 34.81355 | -100.16446 | 34831 ft | 471 kts | 150° |
| 2026-05-06 01:38 | 34.76696 | -100.10956 | 34871 ft | 466 kts | 151° |
| 2026-05-06 01:39 | 34.72106 | -100.05419 | 34870 ft | 471 kts | 150° |
| 2026-05-06 01:39 | 34.67467 | -99.99750 | 34874 ft | 474 kts | 150° |
| 2026-05-06 01:40 | 34.62808 | -99.94057 | 34874 ft | 477 kts | 150° |
| 2026-05-06 01:40 | 34.58119 | -99.88346 | 34824 ft | 478 kts | 150° |
| 2026-05-06 01:41 | 34.53459 | -99.82682 | 34856 ft | 478 kts | 150° |
| 2026-05-06 01:41 | 34.48756 | -99.76980 | 34865 ft | 478 kts | 150° |
| 2026-05-06 01:42 | 34.43373 | -99.70465 | 34861 ft | 478 kts | 150° |
| 2026-05-06 01:42 | 34.40335 | -99.66793 | 34858 ft | 478 kts | 150° |
| 2026-05-06 01:43 | 34.36388 | -99.62027 | 34861 ft | 478 kts | 150° |